sensor_id;sensor_type;location;lat;lon;timestamp;P1;durP1;ratioP1;P2;durP2;ratioP2
81386;SDS011;70842;50.744;7.114;2023-09-12T00:00:35;15.57;;;11.82;;
81386;SDS011;70842;50.744;7.114;2023-09-12T00:03:02;14.57;;;12.07;;
81386;SDS011;70842;50.744;7.114;2023-09-12T00:05:28;16.58;;;10.55;;
81386;SDS011;70842;50.744;7.114;2023-09-12T00:07:55;17.42;;;11.57;;
81386;SDS011;70842;50.744;7.114;2023-09-12T00:10:21;14.07;;;11.70;;
81386;SDS011;70842;50.744;7.114;2023-09-12T00:12:47;14.15;;;11.32;;
81386;SDS011;70842;50.744;7.114;2023-09-12T00:15:14;14.98;;;11.95;;
81386;SDS011;70842;50.744;7.114;2023-09-12T00:17:40;14.63;;;11.63;;
81386;SDS011;70842;50.744;7.114;2023-09-12T00:20:07;17.52;;;10.70;;
81386;SDS011;70842;50.744;7.114;2023-09-12T00:22:34;13.43;;;10.65;;
81386;SDS011;70842;50.744;7.114;2023-09-12T00:25:00;12.88;;;10.80;;
81386;SDS011;70842;50.744;7.114;2023-09-12T00:27:27;14.50;;;10.30;;
81386;SDS011;70842;50.744;7.114;2023-09-12T00:29:53;12.65;;;9.75;;
81386;SDS011;70842;50.744;7.114;2023-09-12T00:32:19;13.45;;;10.32;;
81386;SDS011;70842;50.744;7.114;2023-09-12T00:34:46;13.63;;;11.38;;
81386;SDS011;70842;50.744;7.114;2023-09-12T00:37:12;14.32;;;10.40;;
81386;SDS011;70842;50.744;7.114;2023-09-12T00:39:39;13.30;;;9.30;;
81386;SDS011;70842;50.744;7.114;2023-09-12T00:42:05;13.32;;;10.23;;
81386;SDS011;70842;50.744;7.114;2023-09-12T00:44:33;12.77;;;8.70;;
81386;SDS011;70842;50.744;7.114;2023-09-12T00:47:00;10.25;;;8.70;;
81386;SDS011;70842;50.744;7.114;2023-09-12T00:49:29;12.73;;;8.15;;
81386;SDS011;70842;50.744;7.114;2023-09-12T00:51:55;11.02;;;8.35;;
81386;SDS011;70842;50.744;7.114;2023-09-12T00:54:22;12.90;;;8.30;;
81386;SDS011;70842;50.744;7.114;2023-09-12T00:56:49;12.43;;;7.43;;
81386;SDS011;70842;50.744;7.114;2023-09-12T00:59:15;10.07;;;7.85;;
81386;SDS011;70842;50.744;7.114;2023-09-12T01:01:44;12.30;;;9.85;;
81386;SDS011;70842;50.744;7.114;2023-09-12T01:04:11;13.20;;;8.43;;
81386;SDS011;70842;50.744;7.114;2023-09-12T01:06:57;9.60;;;8.57;;
81386;SDS011;70842;50.744;7.114;2023-09-12T01:09:24;11.73;;;7.78;;
81386;SDS011;70842;50.744;7.114;2023-09-12T01:11:50;12.70;;;8.38;;
81386;SDS011;70842;50.744;7.114;2023-09-12T01:14:17;11.57;;;8.93;;
81386;SDS011;70842;50.744;7.114;2023-09-12T01:16:43;14.32;;;8.35;;
81386;SDS011;70842;50.744;7.114;2023-09-12T01:19:10;12.35;;;8.82;;
81386;SDS011;70842;50.744;7.114;2023-09-12T01:21:49;11.45;;;7.95;;
81386;SDS011;70842;50.744;7.114;2023-09-12T01:24:45;11.88;;;7.72;;
81386;SDS011;70842;50.744;7.114;2023-09-12T01:27:43;13.18;;;8.05;;
81386;SDS011;70842;50.744;7.114;2023-09-12T01:30:12;11.93;;;7.38;;
81386;SDS011;70842;50.744;7.114;2023-09-12T01:32:43;12.48;;;7.32;;
81386;SDS011;70842;50.744;7.114;2023-09-12T01:35:10;12.10;;;7.22;;
81386;SDS011;70842;50.744;7.114;2023-09-12T01:37:36;9.63;;;8.30;;
81386;SDS011;70842;50.744;7.114;2023-09-12T01:40:02;10.15;;;6.40;;
81386;SDS011;70842;50.744;7.114;2023-09-12T01:42:31;9.40;;;6.47;;
81386;SDS011;70842;50.744;7.114;2023-09-12T01:45:06;9.05;;;6.80;;
81386;SDS011;70842;50.744;7.114;2023-09-12T01:47:35;9.65;;;7.28;;
81386;SDS011;70842;50.744;7.114;2023-09-12T01:50:03;9.75;;;7.10;;
81386;SDS011;70842;50.744;7.114;2023-09-12T01:52:33;10.10;;;7.88;;
81386;SDS011;70842;50.744;7.114;2023-09-12T01:55:01;10.07;;;7.72;;
81386;SDS011;70842;50.744;7.114;2023-09-12T01:57:28;8.10;;;6.80;;
81386;SDS011;70842;50.744;7.114;2023-09-12T01:59:55;11.27;;;7.40;;
81386;SDS011;70842;50.744;7.114;2023-09-12T02:02:22;9.15;;;7.43;;
81386;SDS011;70842;50.744;7.114;2023-09-12T02:04:54;12.15;;;8.13;;
81386;SDS011;70842;50.744;7.114;2023-09-12T02:07:32;10.10;;;6.70;;
81386;SDS011;70842;50.744;7.114;2023-09-12T02:10:01;12.05;;;7.30;;
81386;SDS011;70842;50.744;7.114;2023-09-12T02:12:33;9.07;;;7.13;;
81386;SDS011;70842;50.744;7.114;2023-09-12T02:15:00;8.38;;;7.00;;
81386;SDS011;70842;50.744;7.114;2023-09-12T02:17:26;9.35;;;7.22;;
81386;SDS011;70842;50.744;7.114;2023-09-12T02:19:53;10.82;;;7.53;;
81386;SDS011;70842;50.744;7.114;2023-09-12T02:22:19;11.23;;;7.97;;
81386;SDS011;70842;50.744;7.114;2023-09-12T02:24:46;11.15;;;7.22;;
81386;SDS011;70842;50.744;7.114;2023-09-12T02:27:12;10.73;;;9.52;;
81386;SDS011;70842;50.744;7.114;2023-09-12T02:29:39;10.73;;;8.68;;
81386;SDS011;70842;50.744;7.114;2023-09-12T02:32:06;9.18;;;7.03;;
81386;SDS011;70842;50.744;7.114;2023-09-12T02:34:32;9.60;;;7.68;;
81386;SDS011;70842;50.744;7.114;2023-09-12T02:36:59;12.95;;;7.57;;
81386;SDS011;70842;50.744;7.114;2023-09-12T02:39:26;9.63;;;7.78;;
81386;SDS011;70842;50.744;7.114;2023-09-12T02:41:52;8.95;;;7.47;;
81386;SDS011;70842;50.744;7.114;2023-09-12T02:44:19;10.82;;;9.13;;
81386;SDS011;70842;50.744;7.114;2023-09-12T02:46:45;12.23;;;8.85;;
81386;SDS011;70842;50.744;7.114;2023-09-12T02:49:12;12.38;;;8.38;;
81386;SDS011;70842;50.744;7.114;2023-09-12T02:51:38;10.15;;;7.32;;
81386;SDS011;70842;50.744;7.114;2023-09-12T02:54:06;11.20;;;8.43;;
81386;SDS011;70842;50.744;7.114;2023-09-12T02:56:32;12.70;;;8.80;;
81386;SDS011;70842;50.744;7.114;2023-09-12T02:58:58;10.88;;;9.05;;
81386;SDS011;70842;50.744;7.114;2023-09-12T03:01:25;12.70;;;9.32;;
81386;SDS011;70842;50.744;7.114;2023-09-12T03:03:54;10.52;;;8.45;;
81386;SDS011;70842;50.744;7.114;2023-09-12T03:06:21;13.23;;;8.63;;
81386;SDS011;70842;50.744;7.114;2023-09-12T03:08:47;12.70;;;9.38;;
81386;SDS011;70842;50.744;7.114;2023-09-12T03:11:14;15.45;;;9.80;;
81386;SDS011;70842;50.744;7.114;2023-09-12T03:13:41;14.38;;;9.35;;
81386;SDS011;70842;50.744;7.114;2023-09-12T03:16:11;14.20;;;9.77;;
81386;SDS011;70842;50.744;7.114;2023-09-12T03:18:38;12.75;;;9.23;;
81386;SDS011;70842;50.744;7.114;2023-09-12T03:21:05;13.63;;;9.88;;
81386;SDS011;70842;50.744;7.114;2023-09-12T03:23:32;12.48;;;9.05;;
81386;SDS011;70842;50.744;7.114;2023-09-12T03:26:02;14.50;;;9.65;;
81386;SDS011;70842;50.744;7.114;2023-09-12T03:28:30;14.40;;;9.68;;
81386;SDS011;70842;50.744;7.114;2023-09-12T03:31:07;14.32;;;11.00;;
81386;SDS011;70842;50.744;7.114;2023-09-12T03:33:35;14.68;;;11.52;;
81386;SDS011;70842;50.744;7.114;2023-09-12T03:36:01;13.85;;;9.13;;
81386;SDS011;70842;50.744;7.114;2023-09-12T03:38:27;14.45;;;8.50;;
81386;SDS011;70842;50.744;7.114;2023-09-12T03:40:54;13.02;;;9.48;;
81386;SDS011;70842;50.744;7.114;2023-09-12T03:43:20;12.15;;;9.77;;
81386;SDS011;70842;50.744;7.114;2023-09-12T03:45:47;14.77;;;9.93;;
81386;SDS011;70842;50.744;7.114;2023-09-12T03:48:13;13.98;;;10.82;;
81386;SDS011;70842;50.744;7.114;2023-09-12T03:50:40;13.77;;;10.18;;
81386;SDS011;70842;50.744;7.114;2023-09-12T03:53:07;16.23;;;12.52;;
81386;SDS011;70842;50.744;7.114;2023-09-12T03:55:33;16.27;;;12.63;;
81386;SDS011;70842;50.744;7.114;2023-09-12T03:57:59;14.85;;;11.25;;
81386;SDS011;70842;50.744;7.114;2023-09-12T04:00:26;13.93;;;11.65;;
81386;SDS011;70842;50.744;7.114;2023-09-12T04:02:53;16.00;;;11.10;;
81386;SDS011;70842;50.744;7.114;2023-09-12T04:05:19;15.38;;;11.25;;
81386;SDS011;70842;50.744;7.114;2023-09-12T04:07:45;13.48;;;10.25;;
81386;SDS011;70842;50.744;7.114;2023-09-12T04:10:12;14.02;;;9.82;;
81386;SDS011;70842;50.744;7.114;2023-09-12T04:12:38;15.65;;;12.60;;
81386;SDS011;70842;50.744;7.114;2023-09-12T04:15:06;17.15;;;11.82;;
81386;SDS011;70842;50.744;7.114;2023-09-12T04:17:32;15.13;;;10.27;;
81386;SDS011;70842;50.744;7.114;2023-09-12T04:19:59;16.27;;;11.48;;
81386;SDS011;70842;50.744;7.114;2023-09-12T04:22:25;14.65;;;10.15;;
81386;SDS011;70842;50.744;7.114;2023-09-12T04:24:52;14.85;;;10.82;;
81386;SDS011;70842;50.744;7.114;2023-09-12T04:27:18;13.57;;;9.30;;
81386;SDS011;70842;50.744;7.114;2023-09-12T04:29:45;13.13;;;9.60;;
81386;SDS011;70842;50.744;7.114;2023-09-12T04:32:11;14.93;;;10.70;;
81386;SDS011;70842;50.744;7.114;2023-09-12T04:34:38;13.98;;;9.40;;
81386;SDS011;70842;50.744;7.114;2023-09-12T04:37:04;15.30;;;10.65;;
81386;SDS011;70842;50.744;7.114;2023-09-12T04:39:32;14.27;;;10.63;;
81386;SDS011;70842;50.744;7.114;2023-09-12T04:41:58;13.07;;;10.77;;
81386;SDS011;70842;50.744;7.114;2023-09-12T04:44:25;14.75;;;10.10;;
81386;SDS011;70842;50.744;7.114;2023-09-12T04:46:51;12.93;;;11.30;;
81386;SDS011;70842;50.744;7.114;2023-09-12T04:49:18;14.30;;;11.40;;
81386;SDS011;70842;50.744;7.114;2023-09-12T04:51:44;14.65;;;10.90;;
81386;SDS011;70842;50.744;7.114;2023-09-12T04:54:11;15.55;;;10.60;;
81386;SDS011;70842;50.744;7.114;2023-09-12T04:56:38;13.50;;;11.05;;
81386;SDS011;70842;50.744;7.114;2023-09-12T04:59:04;13.70;;;11.50;;
81386;SDS011;70842;50.744;7.114;2023-09-12T05:01:32;14.10;;;10.40;;
81386;SDS011;70842;50.744;7.114;2023-09-12T05:03:59;13.40;;;10.07;;
81386;SDS011;70842;50.744;7.114;2023-09-12T05:06:26;11.88;;;10.13;;
81386;SDS011;70842;50.744;7.114;2023-09-12T05:08:52;16.70;;;10.63;;
81386;SDS011;70842;50.744;7.114;2023-09-12T05:11:19;15.15;;;10.98;;
81386;SDS011;70842;50.744;7.114;2023-09-12T05:13:45;12.98;;;9.57;;
81386;SDS011;70842;50.744;7.114;2023-09-12T05:16:11;13.05;;;11.02;;
81386;SDS011;70842;50.744;7.114;2023-09-12T05:18:38;15.80;;;10.88;;
81386;SDS011;70842;50.744;7.114;2023-09-12T05:21:04;11.52;;;10.32;;
81386;SDS011;70842;50.744;7.114;2023-09-12T05:23:31;12.98;;;9.73;;
81386;SDS011;70842;50.744;7.114;2023-09-12T05:25:57;14.00;;;9.80;;
81386;SDS011;70842;50.744;7.114;2023-09-12T05:28:24;14.77;;;10.68;;
81386;SDS011;70842;50.744;7.114;2023-09-12T05:30:50;13.02;;;10.77;;
81386;SDS011;70842;50.744;7.114;2023-09-12T05:33:17;15.20;;;10.82;;
81386;SDS011;70842;50.744;7.114;2023-09-12T05:35:43;15.02;;;10.68;;
81386;SDS011;70842;50.744;7.114;2023-09-12T05:38:10;15.73;;;10.75;;
81386;SDS011;70842;50.744;7.114;2023-09-12T05:40:37;16.02;;;12.50;;
81386;SDS011;70842;50.744;7.114;2023-09-12T05:43:03;16.67;;;10.98;;
81386;SDS011;70842;50.744;7.114;2023-09-12T05:45:30;13.48;;;9.52;;
81386;SDS011;70842;50.744;7.114;2023-09-12T05:47:59;14.82;;;11.02;;
81386;SDS011;70842;50.744;7.114;2023-09-12T05:50:26;14.27;;;11.55;;
81386;SDS011;70842;50.744;7.114;2023-09-12T05:52:52;15.23;;;11.63;;
81386;SDS011;70842;50.744;7.114;2023-09-12T05:55:18;16.17;;;11.00;;
81386;SDS011;70842;50.744;7.114;2023-09-12T05:57:45;13.10;;;10.45;;
81386;SDS011;70842;50.744;7.114;2023-09-12T06:00:11;15.15;;;10.80;;
81386;SDS011;70842;50.744;7.114;2023-09-12T06:02:38;16.02;;;10.23;;
81386;SDS011;70842;50.744;7.114;2023-09-12T06:05:05;16.80;;;11.93;;
81386;SDS011;70842;50.744;7.114;2023-09-12T06:07:32;14.95;;;11.10;;
81386;SDS011;70842;50.744;7.114;2023-09-12T06:09:59;14.55;;;10.20;;
81386;SDS011;70842;50.744;7.114;2023-09-12T06:12:25;11.85;;;8.90;;
81386;SDS011;70842;50.744;7.114;2023-09-12T06:14:52;14.27;;;10.35;;
81386;SDS011;70842;50.744;7.114;2023-09-12T06:17:20;14.35;;;10.57;;
81386;SDS011;70842;50.744;7.114;2023-09-12T06:19:47;11.00;;;8.55;;
81386;SDS011;70842;50.744;7.114;2023-09-12T06:22:15;14.77;;;9.57;;
81386;SDS011;70842;50.744;7.114;2023-09-12T06:24:43;13.02;;;9.68;;
81386;SDS011;70842;50.744;7.114;2023-09-12T06:27:10;17.73;;;11.90;;
81386;SDS011;70842;50.744;7.114;2023-09-12T06:29:45;14.00;;;9.38;;
81386;SDS011;70842;50.744;7.114;2023-09-12T06:32:14;13.80;;;10.82;;
81386;SDS011;70842;50.744;7.114;2023-09-12T06:34:42;15.15;;;9.45;;
81386;SDS011;70842;50.744;7.114;2023-09-12T06:37:08;12.05;;;9.60;;
81386;SDS011;70842;50.744;7.114;2023-09-12T06:39:38;12.40;;;9.75;;
81386;SDS011;70842;50.744;7.114;2023-09-12T06:42:04;16.48;;;9.82;;
81386;SDS011;70842;50.744;7.114;2023-09-12T06:44:31;17.42;;;10.52;;
81386;SDS011;70842;50.744;7.114;2023-09-12T06:46:57;14.20;;;10.95;;
81386;SDS011;70842;50.744;7.114;2023-09-12T06:49:24;15.15;;;9.38;;
81386;SDS011;70842;50.744;7.114;2023-09-12T06:51:50;12.88;;;8.85;;
81386;SDS011;70842;50.744;7.114;2023-09-12T06:54:16;17.20;;;10.38;;
81386;SDS011;70842;50.744;7.114;2023-09-12T06:56:43;13.52;;;11.60;;
81386;SDS011;70842;50.744;7.114;2023-09-12T06:59:09;15.00;;;10.65;;
81386;SDS011;70842;50.744;7.114;2023-09-12T07:01:36;14.20;;;10.95;;
81386;SDS011;70842;50.744;7.114;2023-09-12T07:04:03;13.70;;;11.07;;
81386;SDS011;70842;50.744;7.114;2023-09-12T07:06:30;15.27;;;10.90;;
81386;SDS011;70842;50.744;7.114;2023-09-12T07:08:56;14.00;;;9.50;;
81386;SDS011;70842;50.744;7.114;2023-09-12T07:11:23;13.93;;;10.07;;
81386;SDS011;70842;50.744;7.114;2023-09-12T07:13:50;14.80;;;10.40;;
81386;SDS011;70842;50.744;7.114;2023-09-12T07:16:18;12.73;;;10.07;;
81386;SDS011;70842;50.744;7.114;2023-09-12T07:18:47;15.05;;;11.30;;
81386;SDS011;70842;50.744;7.114;2023-09-12T07:21:14;14.27;;;9.57;;
81386;SDS011;70842;50.744;7.114;2023-09-12T07:23:41;13.52;;;10.00;;
81386;SDS011;70842;50.744;7.114;2023-09-12T07:26:11;11.55;;;8.88;;
81386;SDS011;70842;50.744;7.114;2023-09-12T07:28:39;14.27;;;10.05;;
81386;SDS011;70842;50.744;7.114;2023-09-12T07:31:06;11.23;;;8.32;;
81386;SDS011;70842;50.744;7.114;2023-09-12T07:33:33;12.57;;;9.93;;
81386;SDS011;70842;50.744;7.114;2023-09-12T07:35:59;12.68;;;10.10;;
81386;SDS011;70842;50.744;7.114;2023-09-12T07:38:26;11.75;;;9.20;;
81386;SDS011;70842;50.744;7.114;2023-09-12T07:40:53;14.27;;;10.27;;
81386;SDS011;70842;50.744;7.114;2023-09-12T07:43:19;13.32;;;10.55;;
81386;SDS011;70842;50.744;7.114;2023-09-12T07:45:47;13.20;;;9.18;;
81386;SDS011;70842;50.744;7.114;2023-09-12T07:48:15;13.57;;;9.98;;
81386;SDS011;70842;50.744;7.114;2023-09-12T07:50:41;13.45;;;10.27;;
81386;SDS011;70842;50.744;7.114;2023-09-12T07:53:08;13.30;;;10.93;;
81386;SDS011;70842;50.744;7.114;2023-09-12T07:55:37;13.75;;;11.45;;
81386;SDS011;70842;50.744;7.114;2023-09-12T07:58:12;12.27;;;9.88;;
81386;SDS011;70842;50.744;7.114;2023-09-12T08:00:39;11.50;;;8.80;;
81386;SDS011;70842;50.744;7.114;2023-09-12T08:03:06;14.82;;;10.13;;
81386;SDS011;70842;50.744;7.114;2023-09-12T08:05:33;14.40;;;10.35;;
81386;SDS011;70842;50.744;7.114;2023-09-12T08:07:59;12.88;;;10.80;;
81386;SDS011;70842;50.744;7.114;2023-09-12T08:10:26;12.45;;;10.27;;
81386;SDS011;70842;50.744;7.114;2023-09-12T08:12:53;11.80;;;9.50;;
81386;SDS011;70842;50.744;7.114;2023-09-12T08:15:19;14.20;;;10.45;;
81386;SDS011;70842;50.744;7.114;2023-09-12T08:17:46;13.15;;;9.27;;
81386;SDS011;70842;50.744;7.114;2023-09-12T08:20:18;11.27;;;10.07;;
81386;SDS011;70842;50.744;7.114;2023-09-12T08:22:45;12.02;;;9.23;;
81386;SDS011;70842;50.744;7.114;2023-09-12T08:25:12;12.30;;;10.73;;
81386;SDS011;70842;50.744;7.114;2023-09-12T08:27:40;11.50;;;9.90;;
81386;SDS011;70842;50.744;7.114;2023-09-12T08:30:08;12.48;;;8.80;;
81386;SDS011;70842;50.744;7.114;2023-09-12T08:32:36;10.88;;;8.85;;
81386;SDS011;70842;50.744;7.114;2023-09-12T08:35:06;12.68;;;10.05;;
81386;SDS011;70842;50.744;7.114;2023-09-12T08:37:33;12.00;;;8.57;;
81386;SDS011;70842;50.744;7.114;2023-09-12T08:39:59;11.35;;;9.55;;
81386;SDS011;70842;50.744;7.114;2023-09-12T08:42:27;11.88;;;9.55;;
81386;SDS011;70842;50.744;7.114;2023-09-12T08:44:54;14.93;;;10.63;;
81386;SDS011;70842;50.744;7.114;2023-09-12T08:47:22;11.30;;;9.10;;
81386;SDS011;70842;50.744;7.114;2023-09-12T08:49:49;11.50;;;9.30;;
81386;SDS011;70842;50.744;7.114;2023-09-12T08:52:16;13.38;;;10.02;;
81386;SDS011;70842;50.744;7.114;2023-09-12T08:54:42;13.30;;;9.63;;
81386;SDS011;70842;50.744;7.114;2023-09-12T08:57:09;13.38;;;9.52;;
81386;SDS011;70842;50.744;7.114;2023-09-12T08:59:38;14.77;;;10.85;;
81386;SDS011;70842;50.744;7.114;2023-09-12T09:02:07;16.48;;;11.48;;
81386;SDS011;70842;50.744;7.114;2023-09-12T09:04:35;13.07;;;10.45;;
81386;SDS011;70842;50.744;7.114;2023-09-12T09:07:03;12.15;;;9.38;;
81386;SDS011;70842;50.744;7.114;2023-09-12T09:09:31;13.82;;;10.38;;
81386;SDS011;70842;50.744;7.114;2023-09-12T09:11:58;14.00;;;9.75;;
81386;SDS011;70842;50.744;7.114;2023-09-12T09:14:25;13.98;;;10.25;;
81386;SDS011;70842;50.744;7.114;2023-09-12T09:16:51;11.45;;;10.23;;
81386;SDS011;70842;50.744;7.114;2023-09-12T09:19:18;12.27;;;10.75;;
81386;SDS011;70842;50.744;7.114;2023-09-12T09:21:46;13.80;;;10.20;;
81386;SDS011;70842;50.744;7.114;2023-09-12T09:24:13;16.00;;;10.73;;
81386;SDS011;70842;50.744;7.114;2023-09-12T09:26:44;12.50;;;10.70;;
81386;SDS011;70842;50.744;7.114;2023-09-12T09:29:13;15.07;;;11.40;;
81386;SDS011;70842;50.744;7.114;2023-09-12T09:31:44;15.65;;;11.48;;
81386;SDS011;70842;50.744;7.114;2023-09-12T09:34:12;15.18;;;9.02;;
81386;SDS011;70842;50.744;7.114;2023-09-12T09:36:49;11.93;;;10.18;;
81386;SDS011;70842;50.744;7.114;2023-09-12T09:39:18;14.00;;;12.13;;
81386;SDS011;70842;50.744;7.114;2023-09-12T09:41:49;13.50;;;10.63;;
81386;SDS011;70842;50.744;7.114;2023-09-12T09:44:16;14.77;;;9.95;;
81386;SDS011;70842;50.744;7.114;2023-09-12T09:46:44;13.55;;;11.75;;
81386;SDS011;70842;50.744;7.114;2023-09-12T09:49:14;14.60;;;11.15;;
81386;SDS011;70842;50.744;7.114;2023-09-12T09:54:14;15.95;;;10.90;;
81386;SDS011;70842;50.744;7.114;2023-09-12T09:56:59;16.73;;;12.15;;
81386;SDS011;70842;50.744;7.114;2023-09-12T09:59:26;13.48;;;11.57;;
81386;SDS011;70842;50.744;7.114;2023-09-12T10:01:57;13.27;;;11.73;;
81386;SDS011;70842;50.744;7.114;2023-09-12T10:04:26;13.25;;;10.88;;
81386;SDS011;70842;50.744;7.114;2023-09-12T10:06:55;12.75;;;10.80;;
81386;SDS011;70842;50.744;7.114;2023-09-12T10:09:25;12.18;;;10.93;;
81386;SDS011;70842;50.744;7.114;2023-09-12T10:11:52;16.52;;;10.80;;
81386;SDS011;70842;50.744;7.114;2023-09-12T10:14:22;12.43;;;10.27;;
81386;SDS011;70842;50.744;7.114;2023-09-12T10:16:50;14.00;;;10.82;;
81386;SDS011;70842;50.744;7.114;2023-09-12T10:24:54;12.30;;;10.98;;
81386;SDS011;70842;50.744;7.114;2023-09-12T10:27:23;15.27;;;13.68;;
81386;SDS011;70842;50.744;7.114;2023-09-12T10:29:51;13.85;;;11.85;;
81386;SDS011;70842;50.744;7.114;2023-09-12T10:32:19;12.85;;;10.45;;
81386;SDS011;70842;50.744;7.114;2023-09-12T10:34:47;14.65;;;12.52;;
81386;SDS011;70842;50.744;7.114;2023-09-12T10:37:18;16.98;;;10.73;;
81386;SDS011;70842;50.744;7.114;2023-09-12T10:39:48;14.70;;;11.00;;
81386;SDS011;70842;50.744;7.114;2023-09-12T10:42:16;13.23;;;11.35;;
81386;SDS011;70842;50.744;7.114;2023-09-12T10:44:44;12.70;;;11.00;;
81386;SDS011;70842;50.744;7.114;2023-09-12T10:47:13;12.30;;;11.10;;
81386;SDS011;70842;50.744;7.114;2023-09-12T10:49:42;15.00;;;11.52;;
81386;SDS011;70842;50.744;7.114;2023-09-12T10:52:09;14.18;;;12.68;;
81386;SDS011;70842;50.744;7.114;2023-09-12T10:54:37;15.50;;;11.93;;
81386;SDS011;70842;50.744;7.114;2023-09-12T10:57:08;15.55;;;12.98;;
81386;SDS011;70842;50.744;7.114;2023-09-12T11:02:29;13.05;;;11.63;;
81386;SDS011;70842;50.744;7.114;2023-09-12T11:04:58;12.70;;;11.32;;
81386;SDS011;70842;50.744;7.114;2023-09-12T11:12:46;10.35;;;9.18;;
81386;SDS011;70842;50.744;7.114;2023-09-12T11:15:15;16.33;;;11.27;;
81386;SDS011;70842;50.744;7.114;2023-09-12T11:17:43;12.20;;;10.00;;
81386;SDS011;70842;50.744;7.114;2023-09-12T11:20:12;11.98;;;9.68;;
81386;SDS011;70842;50.744;7.114;2023-09-12T11:22:41;13.07;;;9.23;;
81386;SDS011;70842;50.744;7.114;2023-09-12T11:25:15;13.02;;;10.20;;
81386;SDS011;70842;50.744;7.114;2023-09-12T11:32:46;11.55;;;9.52;;
81386;SDS011;70842;50.744;7.114;2023-09-12T11:35:17;12.35;;;9.10;;
81386;SDS011;70842;50.744;7.114;2023-09-12T11:37:49;10.70;;;9.60;;
81386;SDS011;70842;50.744;7.114;2023-09-12T11:40:17;13.10;;;9.75;;
81386;SDS011;70842;50.744;7.114;2023-09-12T11:42:44;12.90;;;9.95;;
81386;SDS011;70842;50.744;7.114;2023-09-12T11:45:19;12.18;;;10.95;;
81386;SDS011;70842;50.744;7.114;2023-09-12T11:47:46;13.07;;;10.30;;
81386;SDS011;70842;50.744;7.114;2023-09-12T11:50:27;14.23;;;10.57;;
81386;SDS011;70842;50.744;7.114;2023-09-12T11:53:06;12.45;;;9.13;;
81386;SDS011;70842;50.744;7.114;2023-09-12T11:55:42;11.73;;;9.23;;
81386;SDS011;70842;50.744;7.114;2023-09-12T11:58:10;12.52;;;10.13;;
81386;SDS011;70842;50.744;7.114;2023-09-12T12:00:37;13.13;;;10.20;;
81386;SDS011;70842;50.744;7.114;2023-09-12T12:03:12;12.63;;;10.55;;
81386;SDS011;70842;50.744;7.114;2023-09-12T12:05:40;11.80;;;10.63;;
81386;SDS011;70842;50.744;7.114;2023-09-12T12:08:07;10.30;;;9.20;;
81386;SDS011;70842;50.744;7.114;2023-09-12T12:10:55;11.13;;;9.57;;
81386;SDS011;70842;50.744;7.114;2023-09-12T12:13:21;13.18;;;9.48;;
81386;SDS011;70842;50.744;7.114;2023-09-12T12:15:49;11.40;;;9.15;;
81386;SDS011;70842;50.744;7.114;2023-09-12T12:18:16;10.63;;;9.20;;
81386;SDS011;70842;50.744;7.114;2023-09-12T12:20:42;9.90;;;8.82;;
81386;SDS011;70842;50.744;7.114;2023-09-12T12:23:09;11.25;;;10.02;;
81386;SDS011;70842;50.744;7.114;2023-09-12T12:25:36;10.40;;;7.68;;
81386;SDS011;70842;50.744;7.114;2023-09-12T12:28:03;10.02;;;9.00;;
81386;SDS011;70842;50.744;7.114;2023-09-12T12:30:31;9.98;;;8.57;;
81386;SDS011;70842;50.744;7.114;2023-09-12T12:33:00;10.38;;;8.63;;
81386;SDS011;70842;50.744;7.114;2023-09-12T12:35:38;9.93;;;8.65;;
81386;SDS011;70842;50.744;7.114;2023-09-12T12:38:18;10.00;;;8.65;;
81386;SDS011;70842;50.744;7.114;2023-09-12T12:40:45;8.93;;;7.70;;
81386;SDS011;70842;50.744;7.114;2023-09-12T12:43:17;9.00;;;7.55;;
81386;SDS011;70842;50.744;7.114;2023-09-12T12:45:52;12.02;;;6.78;;
81386;SDS011;70842;50.744;7.114;2023-09-12T12:48:29;10.63;;;7.35;;
81386;SDS011;70842;50.744;7.114;2023-09-12T12:51:00;9.32;;;7.00;;
81386;SDS011;70842;50.744;7.114;2023-09-12T12:53:39;8.35;;;7.50;;
81386;SDS011;70842;50.744;7.114;2023-09-12T12:56:19;9.35;;;8.38;;
81386;SDS011;70842;50.744;7.114;2023-09-12T12:58:50;9.35;;;7.78;;
81386;SDS011;70842;50.744;7.114;2023-09-12T13:01:18;9.45;;;7.45;;
81386;SDS011;70842;50.744;7.114;2023-09-12T13:03:45;8.73;;;7.50;;
81386;SDS011;70842;50.744;7.114;2023-09-12T13:06:13;8.70;;;7.80;;
81386;SDS011;70842;50.744;7.114;2023-09-12T13:08:42;8.77;;;7.00;;
81386;SDS011;70842;50.744;7.114;2023-09-12T13:11:10;10.15;;;6.85;;
81386;SDS011;70842;50.744;7.114;2023-09-12T13:13:42;9.43;;;6.88;;
81386;SDS011;70842;50.744;7.114;2023-09-12T13:16:10;8.23;;;7.38;;
81386;SDS011;70842;50.744;7.114;2023-09-12T13:18:39;7.50;;;6.70;;
81386;SDS011;70842;50.744;7.114;2023-09-12T13:21:06;10.57;;;6.47;;
81386;SDS011;70842;50.744;7.114;2023-09-12T13:23:33;8.88;;;6.18;;
81386;SDS011;70842;50.744;7.114;2023-09-12T13:26:02;8.65;;;6.63;;
81386;SDS011;70842;50.744;7.114;2023-09-12T13:28:29;8.00;;;6.72;;
81386;SDS011;70842;50.744;7.114;2023-09-12T13:30:56;7.63;;;6.80;;
81386;SDS011;70842;50.744;7.114;2023-09-12T13:33:23;7.65;;;6.38;;
81386;SDS011;70842;50.744;7.114;2023-09-12T13:35:50;6.85;;;5.80;;
81386;SDS011;70842;50.744;7.114;2023-09-12T13:38:17;8.15;;;6.82;;
81386;SDS011;70842;50.744;7.114;2023-09-12T13:40:45;8.18;;;6.70;;
81386;SDS011;70842;50.744;7.114;2023-09-12T13:43:12;8.32;;;7.18;;
81386;SDS011;70842;50.744;7.114;2023-09-12T13:45:39;7.93;;;6.07;;
81386;SDS011;70842;50.744;7.114;2023-09-12T13:48:06;7.43;;;6.72;;
81386;SDS011;70842;50.744;7.114;2023-09-12T13:50:34;7.30;;;6.43;;
81386;SDS011;70842;50.744;7.114;2023-09-12T13:53:01;9.60;;;7.25;;
81386;SDS011;70842;50.744;7.114;2023-09-12T13:55:31;7.57;;;6.75;;
81386;SDS011;70842;50.744;7.114;2023-09-12T13:58:17;7.70;;;6.93;;
81386;SDS011;70842;50.744;7.114;2023-09-12T14:00:44;10.73;;;7.75;;
81386;SDS011;70842;50.744;7.114;2023-09-12T14:03:10;8.05;;;6.60;;
81386;SDS011;70842;50.744;7.114;2023-09-12T14:05:37;8.13;;;6.72;;
81386;SDS011;70842;50.744;7.114;2023-09-12T14:08:06;8.93;;;7.57;;
81386;SDS011;70842;50.744;7.114;2023-09-12T14:10:33;8.57;;;6.95;;
81386;SDS011;70842;50.744;7.114;2023-09-12T14:13:03;8.65;;;7.32;;
81386;SDS011;70842;50.744;7.114;2023-09-12T14:15:47;9.25;;;7.47;;
81386;SDS011;70842;50.744;7.114;2023-09-12T14:18:16;8.65;;;7.70;;
81386;SDS011;70842;50.744;7.114;2023-09-12T14:20:44;8.63;;;6.97;;
81386;SDS011;70842;50.744;7.114;2023-09-12T14:23:13;8.07;;;6.95;;
81386;SDS011;70842;50.744;7.114;2023-09-12T14:25:40;9.35;;;7.70;;
81386;SDS011;70842;50.744;7.114;2023-09-12T14:28:08;9.18;;;7.18;;
81386;SDS011;70842;50.744;7.114;2023-09-12T14:30:36;9.20;;;8.30;;
81386;SDS011;70842;50.744;7.114;2023-09-12T14:33:04;9.00;;;7.30;;
81386;SDS011;70842;50.744;7.114;2023-09-12T14:35:30;8.38;;;7.50;;
81386;SDS011;70842;50.744;7.114;2023-09-12T14:37:57;9.48;;;8.15;;
81386;SDS011;70842;50.744;7.114;2023-09-12T14:40:24;8.48;;;7.60;;
81386;SDS011;70842;50.744;7.114;2023-09-12T14:42:53;10.65;;;8.23;;
81386;SDS011;70842;50.744;7.114;2023-09-12T14:45:19;9.40;;;7.60;;
81386;SDS011;70842;50.744;7.114;2023-09-12T14:47:46;9.82;;;7.72;;
81386;SDS011;70842;50.744;7.114;2023-09-12T14:50:12;10.32;;;7.63;;
81386;SDS011;70842;50.744;7.114;2023-09-12T14:52:39;9.15;;;8.25;;
81386;SDS011;70842;50.744;7.114;2023-09-12T14:55:05;8.18;;;7.38;;
81386;SDS011;70842;50.744;7.114;2023-09-12T14:57:34;8.45;;;7.65;;